Time;durP1;ratioP1;P1;durP2;ratioP2;P2;SDS_P1;SDS_P2;PMS_P1;PMS_P2;Temp;Humidity;BMP_temperature;BMP_pressure;BME280_temperature;BME280_humidity;BME280_pressure;Samples;Min_cycle;Max_cycle;Signal;HPM_P1;HPM_P2
2023/10/03 00:02:05;;;;;;;;;;;;;;;13.16;97.37;100680.78;5013506;28;1918;-58
2023/10/03 00:04:31;;;;;;;;;;;;;;;13.16;97.74;100669.66;5013710;28;896;-58
2023/10/03 00:06:58;;;;;;;;;;;;;;;13.11;97.44;100672.84;5013772;28;944;-58
2023/10/03 00:09:26;;;;;;;;;;;;;;;13.06;98.04;100667.72;5013597;28;883;-58
2023/10/03 00:11:52;;;;;;;;;;;;;;;12.95;98.92;100676.06;5013598;28;1188;-58
2023/10/03 00:14:19;;;;;;;;;;;;;;;12.87;99.37;100668.94;5012382;28;1162;-58
2023/10/03 00:16:46;;;;;;;;;;;;;;;12.79;100.00;100672.88;5013504;28;895;-58
2023/10/03 00:19:13;;;;;;;;;;;;;;;12.74;100.00;100674.06;5013428;28;883;-58
2023/10/03 00:21:39;;;;;;;;;;;;;;;12.69;100.00;100684.75;5013312;28;1914;-58
2023/10/03 00:24:06;;;;;;;;;;;;;;;12.59;100.00;100676.06;5013373;28;832;-58
2023/10/03 00:26:33;;;;;;;;;;;;;;;12.53;100.00;100676.84;5013200;28;852;-58
2023/10/03 00:29:00;;;;;;;;;;;;;;;12.50;100.00;100670.09;5013142;28;903;-58
2023/10/03 00:31:29;;;;;;;;;;;;;;;12.51;100.00;100677.22;5013438;28;813;-58
2023/10/03 00:33:55;;;;;;;;;;;;;;;12.52;100.00;100678.78;5013147;28;969;-58
2023/10/03 00:36:24;;;;;;;;;;;;;;;12.55;100.00;100677.25;5013069;28;863;-58
2023/10/03 00:38:51;;;;;;;;;;;;;;;12.56;100.00;100676.81;5013221;28;927;-58
2023/10/03 00:41:21;;;;;;;;;;;;;;;12.56;100.00;100684.34;5013008;28;872;-58
2023/10/03 00:43:52;;;;;;;;;;;;;;;12.49;100.00;100678.81;5013290;28;938;-58
2023/10/03 00:46:18;;;;;;;;;;;;;;;12.44;100.00;100683.56;5013099;28;823;-58
2023/10/03 00:48:47;;;;;;;;;;;;;;;12.50;100.00;100683.94;5013207;28;899;-58
2023/10/03 00:51:14;;;;;;;;;;;;;;;12.54;100.00;100684.75;5012853;28;832;-58
2023/10/03 00:53:43;;;;;;;;;;;;;;;12.54;100.00;100683.97;5012950;28;875;-58
2023/10/03 00:56:10;;;;;;;;;;;;;;;12.48;100.00;100680.78;5012583;28;947;-58
2023/10/03 00:58:37;;;;;;;;;;;;;;;12.44;100.00;100680.78;5012791;28;1022;-58
2023/10/03 01:01:03;;;;;;;;;;;;;;;12.36;100.00;100681.97;5012618;28;979;-58
2023/10/03 01:03:37;;;;;;;;;;;;;;;12.28;100.00;100685.91;5012428;28;1939;-58
2023/10/03 01:06:07;;;;;;;;;;;;;;;12.18;100.00;100684.69;5012773;28;804;-58
2023/10/03 01:08:38;;;;;;;;;;;;;;;12.13;100.00;100681.50;5012500;28;959;-58
2023/10/03 01:11:13;;;;;;;;;;;;;;;12.17;100.00;100682.31;5012430;28;1073;-58
2023/10/03 01:13:39;;;;;;;;;;;;;;;12.21;100.00;100677.56;5012254;28;1254;-58
2023/10/03 01:16:06;;;;;;;;;;;;;;;12.19;100.00;100680.72;5012469;28;892;-58
2023/10/03 01:18:36;;;;;;;;;;;;;;;12.19;100.00;100685.50;5012335;28;926;-58
2023/10/03 01:21:05;;;;;;;;;;;;;;;12.20;100.00;100684.28;5012844;28;1313;-58
2023/10/03 01:23:35;;;;;;;;;;;;;;;12.15;100.00;100684.69;5012284;28;1957;-58
2023/10/03 01:26:06;;;;;;;;;;;;;;;11.98;100.00;100687.00;4994951;28;904;-58
2023/10/03 01:28:34;;;;;;;;;;;;;;;11.56;100.00;100690.34;5012449;28;862;-58
2023/10/03 01:31:01;;;;;;;;;;;;;;;11.18;100.00;100695.25;5012238;28;963;-58
2023/10/03 01:33:27;;;;;;;;;;;;;;;10.90;100.00;100693.84;5012089;28;919;-58
2023/10/03 01:35:54;;;;;;;;;;;;;;;10.68;100.00;100690.13;5012160;28;891;-58
2023/10/03 01:38:23;;;;;;;;;;;;;;;10.52;100.00;100697.88;5012187;28;871;-58
2023/10/03 01:40:54;;;;;;;;;;;;;;;10.37;100.00;100702.47;5012303;28;990;-58
2023/10/03 01:43:20;;;;;;;;;;;;;;;10.24;100.00;100696.38;5012182;28;1902;-58
2023/10/03 01:45:47;;;;;;;;;;;;;;;10.14;100.00;100699.84;5011940;28;892;-58
2023/10/03 01:48:14;;;;;;;;;;;;;;;10.07;100.00;100692.28;5012413;28;857;-58
2023/10/03 01:50:40;;;;;;;;;;;;;;;9.96;100.00;100699.63;5011820;28;943;-58
2023/10/03 01:53:07;;;;;;;;;;;;;;;9.85;100.00;100701.47;5012107;28;796;-58
2023/10/03 01:55:35;;;;;;;;;;;;;;;9.76;100.00;100697.00;5011885;28;938;-58
2023/10/03 01:58:03;;;;;;;;;;;;;;;9.71;100.00;100699.31;5011947;28;1057;-58
2023/10/03 02:00:31;;;;;;;;;;;;;;;9.67;100.00;100699.28;5011795;28;974;-58
2023/10/03 02:03:05;;;;;;;;;;;;;;;9.67;100.00;100695.72;5011802;28;1886;-58
2023/10/03 02:05:34;;;;;;;;;;;;;;;9.72;100.00;100698.13;5011883;28;864;-57
2023/10/03 02:08:20;;;;;;;;;;;;;;;9.76;100.00;100691.50;5011694;28;952;-58
2023/10/03 02:10:50;;;;;;;;;;;;;;;9.83;100.00;100688.03;4994358;28;1965;-58
2023/10/03 02:13:17;;;;;;;;;;;;;;;9.88;100.00;100686.88;5011851;28;1078;-58
2023/10/03 02:15:50;;;;;;;;;;;;;;;9.89;100.00;100691.25;5011791;28;817;-58
2023/10/03 02:18:18;;;;;;;;;;;;;;;9.95;100.00;100687.78;5011695;28;899;-58
2023/10/03 02:20:51;;;;;;;;;;;;;;;9.92;100.00;100691.31;4994270;28;971;-58
2023/10/03 02:23:19;;;;;;;;;;;;;;;9.99;100.00;100690.59;5011581;28;1906;-58
2023/10/03 02:25:49;;;;;;;;;;;;;;;9.97;100.00;100690.19;4994076;28;896;-58
2023/10/03 02:28:17;;;;;;;;;;;;;;;9.97;100.00;100687.41;5012036;28;801;-58
2023/10/03 02:30:44;;;;;;;;;;;;;;;10.01;100.00;100683.50;5011767;28;912;-58
2023/10/03 02:33:12;;;;;;;;;;;;;;;10.01;100.00;100689.03;5011747;28;931;-58
2023/10/03 02:35:42;;;;;;;;;;;;;;;10.02;100.00;100685.09;5011575;28;904;-58
2023/10/03 02:38:14;;;;;;;;;;;;;;;9.91;100.00;100686.94;5013332;28;958;-58
2023/10/03 02:40:40;;;;;;;;;;;;;;;9.90;100.00;100688.13;5015572;28;979;-58
2023/10/03 02:43:10;;;;;;;;;;;;;;;9.99;100.00;100694.13;5015393;28;1890;-58
2023/10/03 02:45:37;;;;;;;;;;;;;;;9.96;100.00;100692.16;5015470;28;900;-58
2023/10/03 02:48:14;;;;;;;;;;;;;;;9.93;100.00;100692.88;5015025;28;896;-58
2023/10/03 02:50:41;;;;;;;;;;;;;;;9.88;100.00;100689.66;5015249;28;935;-58
2023/10/03 02:53:14;;;;;;;;;;;;;;;9.91;100.00;100694.44;5015120;28;856;-58
2023/10/03 02:55:44;;;;;;;;;;;;;;;9.91;100.00;100697.19;5014985;28;951;-58
2023/10/03 02:58:13;;;;;;;;;;;;;;;9.88;100.00;100698.75;5015002;28;862;-58
2023/10/03 03:00:40;;;;;;;;;;;;;;;9.88;100.00;100687.72;5014889;28;879;-58
2023/10/03 03:03:09;;;;;;;;;;;;;;;9.86;100.00;100703.03;5014911;28;1890;-58
2023/10/03 03:05:37;;;;;;;;;;;;;;;9.83;100.00;100696.31;5014729;28;891;-58
2023/10/03 03:10:50;;;;;;;;;;;;;;;9.74;100.00;100687.53;5014712;28;821;-58
2023/10/03 03:13:18;;;;;;;;;;;;;;;9.76;100.00;100687.94;5014840;28;1333;-58
2023/10/03 03:16:28;;;;;;;;;;;;;;;9.80;100.00;100694.31;5014719;28;840;-58
2023/10/03 03:18:42;;;;;;;;;;;;;;;9.86;100.00;100689.22;5008663;28;1655;-57
2023/10/03 03:21:10;;;;;;;;;;;;;;;9.83;100.00;100690.78;5014558;28;916;-58
2023/10/03 03:23:39;;;;;;;;;;;;;;;9.84;100.00;100692.38;5014262;28;1910;-58
2023/10/03 03:28:39;;;;;;;;;;;;;;;9.81;100.00;100682.91;5014397;28;737;-58
2023/10/03 03:31:16;;;;;;;;;;;;;;;9.78;100.00;100689.16;5014425;28;829;-58
2023/10/03 03:33:45;;;;;;;;;;;;;;;9.80;100.00;100688.78;4998360;28;952;-58
2023/10/03 03:36:17;;;;;;;;;;;;;;;9.78;100.00;100688.38;5014192;28;928;-58
2023/10/03 03:38:46;;;;;;;;;;;;;;;9.76;100.00;100690.69;5014177;28;951;-57
2023/10/03 03:41:13;;;;;;;;;;;;;;;9.70;100.00;100686.69;5014313;28;820;-58
2023/10/03 03:43:40;;;;;;;;;;;;;;;9.64;100.00;100688.19;5014207;28;1979;-58
2023/10/03 03:46:08;;;;;;;;;;;;;;;9.60;100.00;100691.69;5013977;28;937;-58
2023/10/03 03:48:36;;;;;;;;;;;;;;;9.56;100.00;100687.31;5013937;28;930;-58
2023/10/03 03:51:07;;;;;;;;;;;;;;;9.61;100.00;100685.00;5013936;28;943;-58
2023/10/03 03:53:34;;;;;;;;;;;;;;;9.72;100.00;100678.81;5013953;28;915;-58
2023/10/03 03:56:01;;;;;;;;;;;;;;;9.77;100.00;100679.28;5013914;28;820;-58
2023/10/03 03:58:28;;;;;;;;;;;;;;;9.88;100.00;100681.38;5013836;28;864;-58
2023/10/03 04:00:55;;;;;;;;;;;;;;;9.85;100.00;100676.59;5013760;28;896;-58
2023/10/03 04:03:23;;;;;;;;;;;;;;;9.85;100.00;100685.69;5013639;28;1951;-58
2023/10/03 04:05:50;;;;;;;;;;;;;;;9.89;100.00;100675.47;5013703;28;884;-58
2023/10/03 04:08:18;;;;;;;;;;;;;;;9.90;100.00;100674.31;5013517;28;932;-58
2023/10/03 04:10:45;;;;;;;;;;;;;;;9.99;100.00;100672.06;5013627;28;892;-58
2023/10/03 04:13:15;;;;;;;;;;;;;;;10.12;100.00;100669.81;5013605;28;1314;-58
2023/10/03 04:15:44;;;;;;;;;;;;;;;10.25;100.00;100675.88;5013570;28;1240;-58
2023/10/03 04:18:16;;;;;;;;;;;;;;;10.46;100.00;100678.09;5013371;28;915;-58
2023/10/03 04:20:46;;;;;;;;;;;;;;;10.61;100.00;100673.50;4995898;28;943;-58
2023/10/03 04:23:14;;;;;;;;;;;;;;;10.74;100.00;100674.78;5013334;28;1910;-58
2023/10/03 04:25:41;;;;;;;;;;;;;;;10.72;100.00;100668.84;5013371;28;923;-58
2023/10/03 04:28:12;;;;;;;;;;;;;;;10.50;100.00;100669.84;5013281;28;809;-58
2023/10/03 04:30:39;;;;;;;;;;;;;;;10.27;100.00;100670.75;5013256;28;900;-58
2023/10/03 04:33:07;;;;;;;;;;;;;;;10.10;100.00;100676.91;5013191;28;936;-58
2023/10/03 04:35:34;;;;;;;;;;;;;;;9.97;100.00;100679.91;5013130;28;853;-58
2023/10/03 04:38:04;;;;;;;;;;;;;;;9.90;100.00;100679.03;5013178;28;839;-58
2023/10/03 04:40:37;;;;;;;;;;;;;;;9.86;100.00;100675.44;5013017;28;908;-58
2023/10/03 04:43:15;;;;;;;;;;;;;;;9.84;100.00;100681.34;5012941;28;1894;-58
2023/10/03 04:45:43;;;;;;;;;;;;;;;9.85;100.00;100673.84;5012880;28;873;-58
2023/10/03 04:48:10;;;;;;;;;;;;;;;9.89;100.00;100678.25;5012991;28;847;-58
2023/10/03 04:50:37;;;;;;;;;;;;;;;9.96;100.00;100681.09;5012702;28;928;-58
2023/10/03 04:53:05;;;;;;;;;;;;;;;10.11;100.00;100684.00;5013078;28;829;-58
2023/10/03 04:55:32;;;;;;;;;;;;;;;10.29;100.00;100687.78;5012682;28;958;-58
2023/10/03 04:57:59;;;;;;;;;;;;;;;10.83;100.00;100691.84;5012821;28;860;-58
2023/10/03 05:00:26;;;;;;;;;;;;;;;11.57;100.00;100694.72;5012259;28;907;-58
2023/10/03 05:02:53;;;;;;;;;;;;;;;12.15;100.00;100688.25;5012611;28;1955;-58
2023/10/03 05:05:21;;;;;;;;;;;;;;;12.63;100.00;100695.44;5012656;28;858;-58
2023/10/03 05:07:58;;;;;;;;;;;;;;;12.92;100.00;100692.69;4995070;28;873;-58
2023/10/03 05:10:27;;;;;;;;;;;;;;;13.14;100.00;100699.00;4995063;28;1382;-58
2023/10/03 05:13:00;;;;;;;;;;;;;;;13.33;100.00;100706.16;4994814;28;902;-58
2023/10/03 05:15:27;;;;;;;;;;;;;;;13.53;100.00;100710.09;4976192;28;869;-58
2023/10/03 05:17:56;;;;;;;;;;;;;;;13.67;100.00;100710.03;4992880;28;805;-58
2023/10/03 05:20:34;;;;;;;;;;;;;;;13.85;100.00;100709.22;4992568;28;931;-58
2023/10/03 05:23:03;;;;;;;;;;;;;;;14.05;100.00;100715.84;4992685;28;1915;-58
2023/10/03 05:25:36;;;;;;;;;;;;;;;14.26;100.00;100720.50;4992729;28;968;-58
2023/10/03 05:28:04;;;;;;;;;;;;;;;14.49;99.66;100722.78;4992682;28;865;-58
2023/10/03 05:30:35;;;;;;;;;;;;;;;14.65;97.87;100727.06;4992646;28;841;-58
2023/10/03 05:33:10;;;;;;;;;;;;;;;14.78;94.92;100732.94;4992872;28;864;-58
2023/10/03 05:35:38;;;;;;;;;;;;;;;14.93;93.21;100728.06;4992946;28;803;-58
2023/10/03 05:38:06;;;;;;;;;;;;;;;15.04;91.04;100737.91;4992439;28;955;-58
2023/10/03 05:40:32;;;;;;;;;;;;;;;15.20;89.06;100736.59;4992461;28;896;-58
2023/10/03 05:43:01;;;;;;;;;;;;;;;15.34;86.75;100730.88;4992429;28;1981;-58
2023/10/03 05:45:28;;;;;;;;;;;;;;;15.49;83.79;100729.53;4992690;28;974;-58
2023/10/03 05:47:55;;;;;;;;;;;;;;;15.73;80.04;100732.50;4992356;28;861;-58
2023/10/03 05:50:23;;;;;;;;;;;;;;;16.03;78.41;100733.75;4992289;28;836;-58
2023/10/03 05:52:50;;;;;;;;;;;;;;;16.25;78.99;100729.44;4992343;28;1119;-58
2023/10/03 05:55:17;;;;;;;;;;;;;;;16.28;79.09;100734.22;4992349;28;885;-58
2023/10/03 05:57:43;;;;;;;;;;;;;;;16.19;79.42;100739.50;4992367;28;910;-58
2023/10/03 06:00:11;;;;;;;;;;;;;;;16.19;78.96;100741.50;4992396;28;825;-58
2023/10/03 06:02:39;;;;;;;;;;;;;;;16.29;77.36;100743.34;4992237;28;1957;-58
2023/10/03 06:05:09;;;;;;;;;;;;;;;16.39;75.10;100741.66;4992175;28;948;-58
2023/10/03 06:07:36;;;;;;;;;;;;;;;16.48;74.60;100748.28;4992292;28;817;-58
2023/10/03 06:10:04;;;;;;;;;;;;;;;16.62;71.93;100740.91;4992259;28;832;-58
2023/10/03 06:12:34;;;;;;;;;;;;;;;16.79;70.99;100747.41;4993276;28;1023;-58
2023/10/03 06:15:00;;;;;;;;;;;;;;;16.99;70.62;100753.13;5012602;28;1455;-58
2023/10/03 06:17:27;;;;;;;;;;;;;;;17.15;69.68;100744.88;5015719;28;973;-58
2023/10/03 06:19:54;;;;;;;;;;;;;;;17.28;68.87;100745.88;5015530;28;1616;-58
2023/10/03 06:22:20;;;;;;;;;;;;;;;17.45;68.74;100757.91;5015652;28;1918;-58
2023/10/03 06:24:47;;;;;;;;;;;;;;;17.72;66.31;100755.03;5015675;28;860;-58
2023/10/03 06:27:14;;;;;;;;;;;;;;;18.19;64.28;100754.13;5015454;28;955;-59
2023/10/03 06:29:41;;;;;;;;;;;;;;;18.47;61.13;100751.94;5015579;28;857;-58
2023/10/03 06:32:08;;;;;;;;;;;;;;;18.57;60.30;100764.91;5015344;28;899;-59
2023/10/03 06:34:33;;;;;;;;;;;;;;;18.67;58.32;100757.47;5015457;28;938;-58
2023/10/03 06:37:00;;;;;;;;;;;;;;;18.79;58.21;100758.84;5015238;28;950;-58
2023/10/03 06:39:27;;;;;;;;;;;;;;;18.94;57.00;100765.66;5015610;28;947;-58
2023/10/03 06:41:55;;;;;;;;;;;;;;;19.13;54.63;100761.19;5015361;28;1968;-58
2023/10/03 07:12:47;;;;;;;;;;;;;;;20.31;48.05;100776.84;5805439;23;1688;-68
2023/10/03 07:15:14;;;;;;;;;;;;;;;20.56;46.78;100776.88;4956677;29;828;-68
2023/10/03 07:17:39;;;;;;;;;;;;;;;21.23;45.25;100771.59;4956729;29;1235;-67
2023/10/03 07:20:08;;;;;;;;;;;;;;;21.74;43.23;100777.09;4956308;29;801;-69
2023/10/03 07:22:35;;;;;;;;;;;;;;;21.96;42.08;100777.13;4956369;29;1994;-67
2023/10/03 07:25:06;;;;;;;;;;;;;;;22.29;40.90;100776.72;4938545;29;1290;-64
2023/10/03 07:27:34;;;;;;;;;;;;;;;22.50;40.57;100781.53;4956118;29;1102;-66
2023/10/03 07:30:04;;;;;;;;;;;;;;;23.00;39.76;100773.13;4956036;29;888;-66
2023/10/03 07:32:34;;;;;;;;;;;;;;;23.41;38.88;100773.88;4938888;29;1380;-65
2023/10/03 07:35:02;;;;;;;;;;;;;;;23.48;38.00;100767.13;4956023;29;781;-68
2023/10/03 07:37:29;;;;;;;;;;;;;;;23.44;38.35;100761.66;4956025;29;841;-66
2023/10/03 07:39:57;;;;;;;;;;;;;;;24.05;37.22;100773.88;4956240;29;964;-67
2023/10/03 07:42:23;;;;;;;;;;;;;;;24.15;36.31;100766.16;4955732;29;1890;-71
2023/10/03 07:44:53;;;;;;;;;;;;;;;23.82;36.52;100769.66;4955843;29;935;-69
2023/10/03 07:47:22;;;;;;;;;;;;;;;23.56;36.59;100774.03;4955857;29;824;-68
2023/10/03 07:49:51;;;;;;;;;;;;;;;23.57;36.05;100767.91;4955952;29;841;-69
2023/10/03 07:52:18;;;;;;;;;;;;;;;23.50;36.20;100778.75;4955718;29;931;-70
2023/10/03 07:54:48;;;;;;;;;;;;;;;23.23;36.67;100771.78;4955614;29;805;-71
2023/10/03 07:57:15;;;;;;;;;;;;;;;23.14;37.11;100772.56;4955827;29;1059;-70
2023/10/03 07:59:43;;;;;;;;;;;;;;;23.46;36.82;100778.09;4955777;29;900;-72
2023/10/03 08:02:10;;;;;;;;;;;;;;;23.52;36.69;100768.56;4938132;29;1952;-71
2023/10/03 08:04:37;;;;;;;;;;;;;;;23.66;36.54;100764.31;4955644;29;872;-73
2023/10/03 08:07:04;;;;;;;;;;;;;;;23.58;36.78;100765.91;4955520;29;892;-71
2023/10/03 08:09:31;;;;;;;;;;;;;;;23.72;36.27;100772.94;4955384;29;837;-72
2023/10/03 08:11:58;;;;;;;;;;;;;;;23.81;36.35;100773.75;4955349;29;813;-69
2023/10/03 08:14:25;;;;;;;;;;;;;;;24.33;35.20;100771.00;4925288;29;1577;-74
2023/10/03 08:16:56;;;;;;;;;;;;;;;24.14;35.13;100775.91;4936350;29;828;-72
2023/10/03 08:19:25;;;;;;;;;;;;;;;23.98;35.98;100767.78;4936136;29;878;-70
2023/10/03 08:21:55;;;;;;;;;;;;;;;24.15;35.22;100765.38;4935884;29;1968;-69
2023/10/03 08:24:25;;;;;;;;;;;;;;;24.10;35.19;100771.69;4936060;29;916;-67
2023/10/03 08:27:01;;;;;;;;;;;;;;;23.76;35.42;100770.78;4935872;29;841;-69
2023/10/03 08:29:28;;;;;;;;;;;;;;;23.52;35.64;100762.13;4935949;29;821;-67
2023/10/03 08:31:58;;;;;;;;;;;;;;;23.41;36.38;100763.38;4936057;29;856;-66
2023/10/03 08:34:27;;;;;;;;;;;;;;;23.42;36.47;100755.69;4918531;29;1216;-67
2023/10/03 08:36:54;;;;;;;;;;;;;;;23.27;36.11;100755.50;4935300;29;806;-69
2023/10/03 08:39:23;;;;;;;;;;;;;;;23.25;36.60;100746.72;4918597;29;1183;-67
2023/10/03 08:41:59;;;;;;;;;;;;;;;23.68;36.22;100744.09;4935547;29;1894;-66
2023/10/03 08:44:31;;;;;;;;;;;;;;;23.76;35.88;100751.03;4935577;29;887;-72
2023/10/03 08:46:59;;;;;;;;;;;;;;;23.33;36.02;100756.47;4935589;29;853;-69
2023/10/03 08:49:38;;;;;;;;;;;;;;;23.55;36.31;100745.03;4935477;29;900;-63
2023/10/03 08:52:05;;;;;;;;;;;;;;;23.63;35.33;100737.03;4935455;29;841;-67
2023/10/03 08:54:36;;;;;;;;;;;;;;;23.03;36.53;100750.44;4935458;29;880;-69
2023/10/03 08:57:04;;;;;;;;;;;;;;;22.98;36.27;100745.41;4935404;29;923;-66
2023/10/03 08:59:31;;;;;;;;;;;;;;;23.35;36.24;100750.38;4935280;29;1335;-66
2023/10/03 09:02:01;;;;;;;;;;;;;;;23.48;35.94;100730.47;4935406;29;1895;-65
2023/10/03 09:04:37;;;;;;;;;;;;;;;23.56;36.17;100734.53;4935367;29;831;-69
2023/10/03 09:07:08;;;;;;;;;;;;;;;23.59;36.52;100733.59;4935276;29;856;-69
2023/10/03 09:09:41;;;;;;;;;;;;;;;23.78;36.28;100740.03;4935207;29;864;-68
2023/10/03 09:12:14;;;;;;;;;;;;;;;23.95;35.72;100741.28;4935197;29;1173;-68
2023/10/03 09:14:41;;;;;;;;;;;;;;;24.21;35.67;100743.72;4949242;29;1429;-67
2023/10/03 09:17:07;;;;;;;;;;;;;;;23.92;35.48;100744.25;4953530;29;820;-68
2023/10/03 09:19:44;;;;;;;;;;;;;;;24.08;35.85;100735.44;4953432;29;848;-63
2023/10/03 09:22:15;;;;;;;;;;;;;;;24.00;35.58;100740.66;4953623;29;1981;-67
2023/10/03 09:24:44;;;;;;;;;;;;;;;23.92;35.62;100741.44;4953540;29;891;-69
2023/10/03 09:27:20;;;;;;;;;;;;;;;23.96;35.74;100739.22;4953570;29;873;-67
2023/10/03 09:29:50;;;;;;;;;;;;;;;24.48;35.74;100737.22;4953268;29;908;-68
2023/10/03 09:32:23;;;;;;;;;;;;;;;24.39;34.90;100728.78;4953216;29;976;-70
2023/10/03 09:34:56;;;;;;;;;;;;;;;24.28;35.48;100737.72;4953256;29;813;-69
2023/10/03 09:37:32;;;;;;;;;;;;;;;24.44;35.09;100723.25;4953122;29;864;-68
2023/10/03 09:40:16;;;;;;;;;;;;;;;24.61;34.15;100728.56;4953116;29;821;-67
2023/10/03 09:42:51;;;;;;;;;;;;;;;24.37;34.61;100725.66;4953290;29;1983;-67
2023/10/03 09:45:24;;;;;;;;;;;;;;;24.35;34.52;100723.28;4953490;29;900;-68
2023/10/03 09:47:58;;;;;;;;;;;;;;;24.52;34.37;100720.91;4952937;28;801;-69
2023/10/03 09:50:26;;;;;;;;;;;;;;;24.56;34.31;100726.34;4952970;29;972;-68
2023/10/03 09:52:53;;;;;;;;;;;;;;;24.25;34.68;100721.75;4952891;29;919;-68
2023/10/03 09:55:26;;;;;;;;;;;;;;;24.13;34.65;100728.38;4952922;29;825;-67
2023/10/03 09:57:59;;;;;;;;;;;;;;;24.16;34.73;100724.59;4952979;29;812;-68
2023/10/03 10:03:19;;;;;;;;;;;;;;;24.01;34.47;100713.97;4952898;29;1883;-68
2023/10/03 10:05:59;;;;;;;;;;;;;;;23.94;34.99;100707.84;4952943;29;840;-70
2023/10/03 10:08:37;;;;;;;;;;;;;;;23.97;35.18;100715.41;4952935;29;888;-69
2023/10/03 10:11:07;;;;;;;;;;;;;;;23.92;35.26;100713.19;4952867;29;808;-68
2023/10/03 10:13:36;;;;;;;;;;;;;;;24.19;34.69;100704.66;4865796;29;2548855;-67
2023/10/03 10:16:13;;;;;;;;;;;;;;;24.56;34.43;100696.09;4953610;29;836;-68
2023/10/03 10:18:46;;;;;;;;;;;;;;;24.91;33.74;100701.22;4953396;29;869;-67
2023/10/03 10:21:30;;;;;;;;;;;;;;;25.27;33.42;100699.44;4953925;29;805;-66
2023/10/03 10:24:20;;;;;;;;;;;;;;;25.51;33.53;100695.78;4953799;29;1972;-68
2023/10/03 10:26:48;;;;;;;;;;;;;;;25.36;32.58;100705.00;4953427;29;928;-68
2023/10/03 10:29:21;;;;;;;;;;;;;;;24.79;33.73;100696.56;4953512;29;826;-66
2023/10/03 10:31:57;;;;;;;;;;;;;;;24.98;33.86;100695.19;4953279;29;845;-67
2023/10/03 10:34:46;;;;;;;;;;;;;;;24.73;33.85;100698.50;4953557;29;908;-69
2023/10/03 10:37:17;;;;;;;;;;;;;;;24.69;34.15;100687.38;4953393;29;833;-69
2023/10/03 10:39:56;;;;;;;;;;;;;;;24.68;33.05;100693.50;4953290;29;825;-66
2023/10/03 10:42:26;;;;;;;;;;;;;;;24.97;33.20;100693.63;4953223;29;1883;-67
2023/10/03 10:45:09;;;;;;;;;;;;;;;25.12;32.94;100690.09;4953531;29;845;-68
2023/10/03 10:47:42;;;;;;;;;;;;;;;25.23;33.14;100699.59;4953240;29;854;-67
2023/10/03 10:50:09;;;;;;;;;;;;;;;24.90;33.23;100668.56;4936254;29;1312;-67
2023/10/03 10:53:12;;;;;;;;;;;;;;;24.84;33.68;100687.44;4953393;29;931;-68
2023/10/03 10:55:39;;;;;;;;;;;;;;;24.74;33.70;100686.72;4894151;29;1282;-69
2023/10/03 10:58:14;;;;;;;;;;;;;;;24.76;33.84;100677.75;4894519;29;1068;-69
2023/10/03 11:00:40;;;;;;;;;;;;;;;24.94;33.51;100674.00;4897752;29;867;-71
2023/10/03 11:03:07;;;;;;;;;;;;;;;24.97;33.51;100668.19;4897561;29;1957;-69
2023/10/03 11:05:50;;;;;;;;;;;;;;;24.96;32.79;100672.25;4897634;29;943;-68
2023/10/03 11:08:21;;;;;;;;;;;;;;;25.41;32.64;100667.56;4897482;29;884;-67
2023/10/03 11:10:52;;;;;;;;;;;;;;;25.79;32.52;100665.16;4897585;29;1089;-69
2023/10/03 11:13:19;;;;;;;;;;;;;;;25.97;32.23;100669.88;4893740;29;1204;-68
2023/10/03 11:15:48;;;;;;;;;;;;;;;26.03;31.76;100657.38;4878723;29;961;-67
2023/10/03 11:18:15;;;;;;;;;;;;;;;26.17;31.37;100661.44;4878640;29;935;-69
2023/10/03 11:20:42;;;;;;;;;;;;;;;25.90;32.04;100653.25;4878709;29;865;-69
2023/10/03 11:23:18;;;;;;;;;;;;;;;25.70;32.02;100649.03;4878438;29;1915;-69
2023/10/03 11:25:54;;;;;;;;;;;;;;;25.61;32.20;100654.81;4878446;29;920;-68
2023/10/03 11:28:20;;;;;;;;;;;;;;;25.44;32.03;100651.66;4878637;29;841;-67
2023/10/03 11:31:01;;;;;;;;;;;;;;;25.45;32.22;100639.06;4936988;29;809;-67
2023/10/03 11:33:27;;;;;;;;;;;;;;;25.93;31.80;100638.91;4936681;29;982;-69
2023/10/03 11:35:55;;;;;;;;;;;;;;;26.42;31.72;100640.19;4936900;29;872;-68
2023/10/03 11:38:21;;;;;;;;;;;;;;;26.85;31.01;100642.59;4936684;29;1053;-68
2023/10/03 11:40:49;;;;;;;;;;;;;;;26.78;30.37;100635.28;4936844;29;830;-67
2023/10/03 11:43:23;;;;;;;;;;;;;;;26.72;30.54;100642.19;4936728;29;1942;-69
2023/10/03 11:45:56;;;;;;;;;;;;;;;26.34;30.74;100641.09;4936718;29;818;-69
2023/10/03 11:48:22;;;;;;;;;;;;;;;26.22;30.91;100632.44;4936686;29;969;-69
2023/10/03 11:50:49;;;;;;;;;;;;;;;26.39;30.75;100644.00;4936723;29;801;-67
2023/10/03 11:53:17;;;;;;;;;;;;;;;26.55;30.77;100628.50;4936524;29;902;-68
2023/10/03 11:55:44;;;;;;;;;;;;;;;26.60;30.19;100630.66;4936784;29;833;-67
2023/10/03 11:58:13;;;;;;;;;;;;;;;26.77;30.49;100624.44;4936462;29;880;-67
2023/10/03 12:00:44;;;;;;;;;;;;;;;26.78;29.52;100623.97;4936390;29;814;-68
2023/10/03 12:03:11;;;;;;;;;;;;;;;26.57;29.64;100617.50;4936333;29;1883;-67
2023/10/03 12:05:49;;;;;;;;;;;;;;;27.08;29.76;100613.22;4936305;29;837;-67
2023/10/03 12:08:15;;;;;;;;;;;;;;;27.72;28.65;100610.53;4936280;29;900;-66
2023/10/03 12:10:43;;;;;;;;;;;;;;;28.28;28.56;100610.97;4935110;29;833;-66
2023/10/03 12:13:09;;;;;;;;;;;;;;;28.18;28.09;100606.75;4938639;29;1343;-67
2023/10/03 12:15:42;;;;;;;;;;;;;;;27.72;27.84;100613.38;4955349;29;837;-68
2023/10/03 12:18:08;;;;;;;;;;;;;;;27.15;28.93;100602.72;4955297;29;868;-68
2023/10/03 12:20:38;;;;;;;;;;;;;;;27.35;28.91;100605.53;4955166;29;873;-67
2023/10/03 12:23:04;;;;;;;;;;;;;;;27.51;28.48;100606.22;4955165;29;1910;-66
2023/10/03 12:25:31;;;;;;;;;;;;;;;27.62;28.58;100604.25;4955172;29;797;-66
2023/10/03 12:27:57;;;;;;;;;;;;;;;27.78;28.45;100596.38;4955092;29;896;-66
2023/10/03 12:30:25;;;;;;;;;;;;;;;27.61;28.62;100599.84;4955065;29;830;-66
2023/10/03 12:32:53;;;;;;;;;;;;;;;27.87;28.16;100593.38;4954861;29;864;-67
2023/10/03 12:35:20;;;;;;;;;;;;;;;28.03;28.14;100592.72;4954919;29;862;-67
2023/10/03 12:37:48;;;;;;;;;;;;;;;28.13;27.81;100598.22;4955076;29;908;-66
2023/10/03 12:40:19;;;;;;;;;;;;;;;27.83;27.49;100592.81;4954906;29;885;-67
2023/10/03 12:42:50;;;;;;;;;;;;;;;27.91;27.83;100593.94;4954730;29;1883;-67
2023/10/03 12:45:17;;;;;;;;;;;;;;;27.73;27.74;100591.44;4937755;29;1239;-68
2023/10/03 12:47:47;;;;;;;;;;;;;;;26.93;28.55;100591.88;4954918;29;857;-66
2023/10/03 12:50:19;;;;;;;;;;;;;;;26.65;29.23;100595.94;4954831;29;828;-67
2023/10/03 12:52:44;;;;;;;;;;;;;;;26.92;28.87;100588.28;4954690;29;900;-65
2023/10/03 12:55:11;;;;;;;;;;;;;;;26.93;29.38;100589.03;4954631;29;884;-66
2023/10/03 12:57:37;;;;;;;;;;;;;;;26.73;29.01;100584.19;4954649;29;964;-66
2023/10/03 13:00:06;;;;;;;;;;;;;;;26.94;29.03;100580.03;4954537;29;892;-66
2023/10/03 13:02:34;;;;;;;;;;;;;;;27.40;28.76;100573.59;4954505;29;1886;-67
2023/10/03 13:05:05;;;;;;;;;;;;;;;27.68;28.26;100576.69;4954412;29;889;-67
2023/10/03 13:07:35;;;;;;;;;;;;;;;27.81;27.97;100576.25;4954372;29;829;-66
2023/10/03 13:10:06;;;;;;;;;;;;;;;27.60;28.21;100563.44;4954350;29;896;-66
2023/10/03 13:12:33;;;;;;;;;;;;;;;27.78;27.66;100570.81;4954153;29;1013;-66
2023/10/03 13:15:02;;;;;;;;;;;;;;;28.09;28.06;100570.03;4953954;29;1322;-67
2023/10/03 13:17:29;;;;;;;;;;;;;;;27.98;27.80;100564.28;4954346;29;852;-67
2023/10/03 13:19:56;;;;;;;;;;;;;;;27.94;27.90;100564.50;4954460;29;830;-66
2023/10/03 13:22:25;;;;;;;;;;;;;;;28.11;27.61;100567.47;4953920;28;1978;-66
2023/10/03 13:24:52;;;;;;;;;;;;;;;28.09;28.00;100565.13;4954193;29;841;-66
2023/10/03 13:27:19;;;;;;;;;;;;;;;28.10;27.65;100566.69;4953965;29;880;-66
2023/10/03 13:29:45;;;;;;;;;;;;;;;27.96;27.98;100566.84;4953951;29;901;-66
2023/10/03 13:32:12;;;;;;;;;;;;;;;27.44;29.75;100567.69;4954113;29;860;-66
2023/10/03 13:34:39;;;;;;;;;;;;;;;27.02;30.34;100566.22;4954081;29;849;-66
2023/10/03 13:37:06;;;;;;;;;;;;;;;26.80;31.14;100564.69;4953938;29;917;-66
2023/10/03 13:39:33;;;;;;;;;;;;;;;26.20;31.68;100566.97;4953991;29;963;-66
2023/10/03 13:42:01;;;;;;;;;;;;;;;26.01;32.07;100572.09;4954117;29;1952;-65